createdAt,value
2023-03-24T00:00:59.311Z,16.20
2023-03-24T00:03:33.199Z,24.15
2023-03-24T00:06:08.062Z,24.13
2023-03-24T00:08:43.282Z,25.83
2023-03-24T00:11:17.856Z,25.48
2023-03-24T00:13:50.863Z,24.50
2023-03-24T00:16:24.156Z,22.88
2023-03-24T00:18:57.571Z,14.73
2023-03-24T00:21:30.224Z,17.58
2023-03-24T00:24:04.213Z,17.58
2023-03-24T00:26:38.725Z,18.83
2023-03-24T00:29:12.962Z,16.80
2023-03-24T00:31:45.413Z,15.98
2023-03-24T00:34:21.063Z,8.88
2023-03-24T00:36:53.521Z,10.25
2023-03-24T00:39:26.040Z,10.57
2023-03-24T00:42:01.022Z,7.68
2023-03-24T00:44:33.710Z,10.25
2023-03-24T00:47:06.212Z,10.43
2023-03-24T00:49:42.001Z,5.38
2023-03-24T00:52:17.401Z,5.43
2023-03-24T00:54:57.419Z,6.80
2023-03-24T00:57:34.226Z,5.55
2023-03-24T01:00:12.193Z,6.00
2023-03-24T01:02:45.780Z,7.72
2023-03-24T01:05:20.065Z,10.15
2023-03-24T01:07:52.596Z,9.50
2023-03-24T01:10:26.538Z,13.35
2023-03-24T01:13:00.070Z,12.13
2023-03-24T01:15:35.746Z,13.80
2023-03-24T01:18:09.105Z,18.77
2023-03-24T01:20:45.006Z,21.10
2023-03-24T01:23:21.691Z,21.33
2023-03-24T01:25:54.580Z,16.88
2023-03-24T01:28:27.198Z,12.30
2023-03-24T01:30:59.727Z,12.27
2023-03-24T01:33:32.168Z,9.23
2023-03-24T01:36:06.770Z,11.35
2023-03-24T01:38:39.455Z,8.32
2023-03-24T01:41:11.903Z,6.40
2023-03-24T01:43:44.736Z,3.97
2023-03-24T01:46:19.090Z,3.55
2023-03-24T01:48:53.987Z,4.53
2023-03-24T01:51:30.771Z,3.45
2023-03-24T01:54:06.916Z,3.83
2023-03-24T01:56:43.240Z,3.00
2023-03-24T01:59:21.190Z,3.17
2023-03-24T02:02:23.441Z,7.72
2023-03-24T02:05:04.508Z,9.10
2023-03-24T02:07:51.556Z,14.25
2023-03-24T02:10:24.771Z,10.85
2023-03-24T02:12:57.228Z,10.73
2023-03-24T02:15:32.275Z,9.13
2023-03-24T02:18:17.691Z,10.05
2023-03-24T02:21:21.166Z,9.50
2023-03-24T02:24:22.646Z,4.07
2023-03-24T02:27:02.489Z,3.55
2023-03-24T02:32:43.551Z,4.20
2023-03-24T02:35:41.174Z,3.95
2023-03-24T02:38:53.918Z,5.28
2023-03-24T02:41:33.081Z,5.00
2023-03-24T02:44:14.427Z,3.58
2023-03-24T02:46:54.680Z,6.00
2023-03-24T02:52:08.293Z,7.60
2023-03-24T02:54:48.413Z,8.55
2023-03-24T02:57:29.005Z,10.05
2023-03-24T03:00:41.169Z,6.80
2023-03-24T03:03:18.924Z,4.75
2023-03-24T03:05:57.990Z,5.32
2023-03-24T03:08:33.200Z,3.92
2023-03-24T03:11:09.734Z,4.93
2023-03-24T03:13:48.333Z,4.45
2023-03-24T03:16:24.886Z,5.22
2023-03-24T03:19:00.866Z,4.38
2023-03-24T03:21:38.580Z,5.75
2023-03-24T03:24:15.093Z,5.03
2023-03-24T03:26:48.670Z,6.43
2023-03-24T03:29:25.916Z,6.53
2023-03-24T03:32:06.891Z,4.60
2023-03-24T03:34:45.447Z,5.15
2023-03-24T03:37:27.595Z,3.53
2023-03-24T03:40:04.836Z,4.43
2023-03-24T03:42:38.754Z,3.28
2023-03-24T03:45:13.550Z,3.78
2023-03-24T03:47:46.864Z,4.10
2023-03-24T03:50:19.551Z,4.30
2023-03-24T03:52:52.208Z,3.53
2023-03-24T03:55:24.908Z,4.30
2023-03-24T03:57:57.857Z,5.30
2023-03-24T04:00:37.909Z,5.05
2023-03-24T04:03:52.690Z,4.88
2023-03-24T04:09:23.677Z,6.32
2023-03-24T04:12:21.319Z,5.80
2023-03-24T04:15:34.463Z,5.32
2023-03-24T04:18:46.436Z,5.53
2023-03-24T04:21:47.906Z,5.85
2023-03-24T04:24:39.466Z,5.10
2023-03-24T04:27:26.397Z,4.80
2023-03-24T04:30:09.446Z,4.60
2023-03-24T04:32:47.740Z,4.57
2023-03-24T04:35:31.247Z,4.30
2023-03-24T04:38:29.542Z,4.32
2023-03-24T04:41:25.638Z,5.97
2023-03-24T04:44:10.039Z,6.18
2023-03-24T04:46:57.237Z,6.55
2023-03-24T04:49:29.638Z,11.63
2023-03-24T04:52:03.147Z,14.95
2023-03-24T04:54:39.021Z,14.90
2023-03-24T04:57:12.337Z,15.02
2023-03-24T04:59:47.578Z,14.05
2023-03-24T05:02:21.903Z,14.65
2023-03-24T05:05:10.138Z,14.07
2023-03-24T05:07:48.770Z,14.88
2023-03-24T05:10:22.138Z,13.38
2023-03-24T05:13:02.186Z,11.25
2023-03-24T05:15:53.572Z,9.98
2023-03-24T05:18:34.786Z,9.27
2023-03-24T05:21:07.682Z,8.88
2023-03-24T05:23:41.956Z,6.93
2023-03-24T05:26:14.405Z,6.85
2023-03-24T05:29:04.804Z,6.05
2023-03-24T05:31:37.309Z,5.95
2023-03-24T05:34:15.168Z,7.57
2023-03-24T05:37:16.228Z,5.68
2023-03-24T05:39:53.285Z,6.35
2023-03-24T05:42:55.709Z,7.30
2023-03-24T05:45:31.083Z,7.25
2023-03-24T05:48:05.636Z,7.05
2023-03-24T05:51:05.953Z,7.50
2023-03-24T05:53:38.496Z,6.88
2023-03-24T05:56:27.296Z,6.53
2023-03-24T05:59:11.759Z,6.60
2023-03-24T06:02:13.419Z,4.53
2023-03-24T06:05:03.303Z,4.50
2023-03-24T06:07:35.793Z,4.00
2023-03-24T06:12:54.906Z,5.38
2023-03-24T06:15:30.134Z,6.50
2023-03-24T06:18:14.460Z,6.50
2023-03-24T06:20:49.983Z,6.15
2023-03-24T06:23:33.928Z,6.55
2023-03-24T06:26:18.333Z,5.75
2023-03-24T06:29:03.737Z,5.57
2023-03-24T06:31:39.811Z,6.28
2023-03-24T06:34:12.346Z,22.95
2023-03-24T06:36:45.636Z,8.10
2023-03-24T06:39:18.314Z,3.75
2023-03-24T06:41:50.885Z,3.75
2023-03-24T06:44:24.214Z,3.80
2023-03-24T06:46:56.559Z,3.10
2023-03-24T06:49:28.994Z,3.05
2023-03-24T06:52:01.541Z,4.10
2023-03-24T06:54:34.845Z,3.92
2023-03-24T06:57:07.416Z,3.92
2023-03-24T07:00:01.290Z,3.83
2023-03-24T07:02:38.682Z,4.28
2023-03-24T07:05:11.775Z,3.85
2023-03-24T07:10:44.292Z,3.35
2023-03-24T07:13:16.918Z,3.45
2023-03-24T07:15:50.691Z,3.45
2023-03-24T07:18:23.551Z,11.05
2023-03-24T07:21:03.114Z,3.92
2023-03-24T07:23:35.950Z,5.20
2023-03-24T07:26:22.792Z,5.82
2023-03-24T07:29:03.259Z,7.35
2023-03-24T07:31:49.994Z,8.38
2023-03-24T07:34:22.777Z,9.60
2023-03-24T07:36:55.770Z,9.05
2023-03-24T07:39:28.195Z,9.68
2023-03-24T07:42:01.116Z,10.70
2023-03-24T07:44:44.230Z,9.18
2023-03-24T07:47:18.552Z,8.35
2023-03-24T07:49:52.692Z,7.38
2023-03-24T07:52:25.177Z,5.95
2023-03-24T07:55:00.372Z,7.10
2023-03-24T07:57:51.620Z,5.53
2023-03-24T08:00:24.397Z,5.57
2023-03-24T08:03:13.448Z,4.97
2023-03-24T08:06:09.160Z,3.85
2023-03-24T08:08:48.218Z,4.80
2023-03-24T08:11:20.824Z,4.65
2023-03-24T08:13:53.246Z,4.45
2023-03-24T08:16:25.641Z,5.00
2023-03-24T08:18:58.567Z,15.02
2023-03-24T08:21:30.874Z,3.78
2023-03-24T08:24:03.490Z,3.17
2023-03-24T08:26:35.788Z,3.10
2023-03-24T08:29:08.548Z,2.92
2023-03-24T08:31:41.027Z,3.05
2023-03-24T08:34:14.066Z,3.30
2023-03-24T08:36:46.727Z,3.30
2023-03-24T08:39:19.565Z,3.03
2023-03-24T08:41:54.266Z,3.85
2023-03-24T08:44:27.122Z,3.75
2023-03-24T08:47:00.970Z,3.03
2023-03-24T08:49:34.127Z,3.13
2023-03-24T08:52:07.685Z,2.70
2023-03-24T08:54:40.169Z,2.95
2023-03-24T08:57:12.588Z,4.45
2023-03-24T08:59:46.025Z,6.03
2023-03-24T09:02:18.388Z,5.55
2023-03-24T09:04:53.989Z,4.65
2023-03-24T09:07:26.605Z,5.35
2023-03-24T09:09:58.989Z,5.03
2023-03-24T09:12:31.541Z,6.35
2023-03-24T09:15:06.444Z,6.28
2023-03-24T09:17:38.889Z,6.35
2023-03-24T09:20:15.277Z,4.75
2023-03-24T09:22:48.033Z,4.63
2023-03-24T09:25:20.876Z,4.63
2023-03-24T09:27:53.237Z,4.85
2023-03-24T09:30:26.521Z,4.22
2023-03-24T09:32:59.760Z,4.22
2023-03-24T09:35:32.917Z,4.22
2023-03-24T09:38:05.316Z,4.00
2023-03-24T09:40:41.967Z,4.28
2023-03-24T09:43:25.921Z,4.93
2023-03-24T09:46:01.764Z,6.07
2023-03-24T09:48:40.548Z,7.25
2023-03-24T09:51:21.822Z,6.70
2023-03-24T09:54:00.858Z,5.70
2023-03-24T09:56:36.070Z,6.20
2023-03-24T09:59:16.204Z,5.68
2023-03-24T10:01:49.618Z,5.72
2023-03-24T10:04:26.089Z,6.95
2023-03-24T10:07:05.799Z,5.90
2023-03-24T10:09:38.917Z,5.93
2023-03-24T10:12:24.862Z,5.50
2023-03-24T10:15:09.860Z,5.28
2023-03-24T10:17:51.496Z,6.07
2023-03-24T10:20:31.987Z,5.65
2023-03-24T10:23:16.863Z,5.60
2023-03-24T10:25:54.466Z,6.63
2023-03-24T10:28:32.690Z,4.40
2023-03-24T10:31:10.601Z,5.97
2023-03-24T10:33:45.011Z,5.50
2023-03-24T10:36:20.256Z,6.47
2023-03-24T10:38:53.608Z,5.97
2023-03-24T10:41:28.810Z,5.90
2023-03-24T10:44:01.343Z,6.22
2023-03-24T10:46:34.090Z,5.03
2023-03-24T10:49:10.106Z,5.47
2023-03-24T10:51:47.005Z,4.82
2023-03-24T10:54:22.148Z,5.95
2023-03-24T10:57:04.021Z,5.68
2023-03-24T10:59:38.411Z,5.55
2023-03-24T11:02:18.449Z,5.05
2023-03-24T11:04:55.668Z,5.18
2023-03-24T11:07:32.369Z,5.32
2023-03-24T11:10:14.690Z,5.53
2023-03-24T11:13:01.863Z,5.13
2023-03-24T11:15:36.567Z,5.47
2023-03-24T11:18:15.920Z,4.80
2023-03-24T11:23:28.867Z,5.50
2023-03-24T11:26:09.198Z,5.85
2023-03-24T11:28:45.370Z,5.45
2023-03-24T11:31:29.839Z,5.90
2023-03-24T11:34:08.660Z,5.18
2023-03-24T11:36:48.552Z,4.40
2023-03-24T11:39:23.457Z,4.35
2023-03-24T11:42:14.797Z,5.25
2023-03-24T11:44:50.653Z,4.88
2023-03-24T11:47:28.572Z,4.63
2023-03-24T11:50:14.912Z,4.40
2023-03-24T11:52:52.266Z,3.80
2023-03-24T11:55:36.874Z,3.67
2023-03-24T11:58:16.961Z,4.43
2023-03-24T12:00:55.364Z,3.47
2023-03-24T12:04:09.233Z,3.85
2023-03-24T12:06:55.651Z,5.18
2023-03-24T12:09:35.020Z,4.50
2023-03-24T12:15:27.908Z,4.28
2023-03-24T12:18:16.442Z,3.53
2023-03-24T12:20:58.221Z,3.33
2023-03-24T12:23:42.317Z,4.10
2023-03-24T12:26:21.411Z,3.65
2023-03-24T12:29:25.916Z,4.00
2023-03-24T12:32:26.607Z,2.90
2023-03-24T12:35:31.136Z,3.53
2023-03-24T12:38:24.923Z,3.88
2023-03-24T12:41:21.448Z,3.30
2023-03-24T12:44:12.216Z,3.17
2023-03-24T12:46:54.808Z,3.53
2023-03-24T12:49:55.703Z,3.63
2023-03-24T12:52:58.023Z,2.58
2023-03-24T12:58:19.138Z,2.72
2023-03-24T13:01:03.427Z,2.55
2023-03-24T13:03:40.691Z,2.63
2023-03-24T13:06:19.037Z,3.63
2023-03-24T13:09:03.075Z,2.88
2023-03-24T13:11:43.298Z,2.65
2023-03-24T13:14:22.394Z,2.90
2023-03-24T13:17:01.428Z,2.53
2023-03-24T13:19:36.741Z,2.88
2023-03-24T13:22:16.192Z,2.58
2023-03-24T13:24:48.623Z,3.55
2023-03-24T13:27:54.482Z,2.83
2023-03-24T13:30:35.593Z,2.42
2023-03-24T13:33:14.434Z,1.90
2023-03-24T13:36:15.169Z,2.80
2023-03-24T13:38:52.780Z,2.63
2023-03-24T13:41:26.622Z,3.13
2023-03-24T13:44:02.872Z,2.50
2023-03-24T13:46:37.013Z,3.05
2023-03-24T13:49:13.889Z,2.70
2023-03-24T13:51:46.899Z,2.58
2023-03-24T13:54:22.594Z,2.30
2023-03-24T13:57:01.717Z,2.10
2023-03-24T13:59:41.730Z,2.33
2023-03-24T14:02:22.838Z,2.05
2023-03-24T14:05:06.414Z,2.45
2023-03-24T14:07:44.214Z,2.22
2023-03-24T14:10:41.492Z,2.65
2023-03-24T14:13:36.855Z,2.20
2023-03-24T14:16:42.702Z,2.10
2023-03-24T14:19:23.357Z,2.83
2023-03-24T14:22:09.918Z,2.33
2023-03-24T14:24:44.731Z,2.30
2023-03-24T14:27:33.782Z,2.10
2023-03-24T14:30:16.755Z,2.03
2023-03-24T14:32:52.073Z,2.50
2023-03-24T14:35:31.296Z,2.58
2023-03-24T14:38:05.570Z,2.33
2023-03-24T14:40:39.610Z,2.50
2023-03-24T14:43:24.641Z,2.17
2023-03-24T14:45:59.638Z,2.35
2023-03-24T14:48:38.678Z,2.28
2023-03-24T14:51:35.662Z,2.15
2023-03-24T14:54:15.793Z,3.22
2023-03-24T14:56:52.556Z,2.50
2023-03-24T14:59:40.943Z,4.03
2023-03-24T15:02:34.321Z,3.25
2023-03-24T15:05:21.958Z,3.42
2023-03-24T15:08:02.548Z,3.45
2023-03-24T15:10:40.412Z,3.65
2023-03-24T15:13:31.283Z,2.95
2023-03-24T15:16:07.316Z,2.60
2023-03-24T15:18:57.755Z,2.30
2023-03-24T15:21:35.532Z,2.75
2023-03-24T15:24:26.746Z,2.50
2023-03-24T15:27:22.616Z,2.40
2023-03-24T15:29:58.253Z,2.05
2023-03-24T15:32:38.125Z,2.40
2023-03-24T15:35:13.966Z,2.67
2023-03-24T15:37:51.768Z,2.30
2023-03-24T15:40:40.459Z,2.35
2023-03-24T15:43:20.040Z,2.45
2023-03-24T15:46:04.702Z,3.22
2023-03-24T15:48:46.850Z,2.22
2023-03-24T15:51:19.456Z,2.90
2023-03-24T15:53:57.321Z,3.83
2023-03-24T15:56:31.290Z,3.45
2023-03-24T15:59:13.298Z,4.57
2023-03-24T16:01:49.657Z,2.92
2023-03-24T16:04:22.865Z,3.35
2023-03-24T16:06:57.322Z,3.58
2023-03-24T16:09:38.259Z,3.50
2023-03-24T16:12:11.318Z,3.00
2023-03-24T16:14:43.897Z,4.28
2023-03-24T16:17:16.233Z,4.60
2023-03-24T16:19:49.211Z,3.75
2023-03-24T16:22:21.608Z,3.97
2023-03-24T16:24:53.916Z,3.67
2023-03-24T16:27:26.341Z,4.78
2023-03-24T16:29:58.700Z,3.63
2023-03-24T16:32:31.616Z,4.50
2023-03-24T16:35:05.579Z,7.13
2023-03-24T16:37:37.965Z,10.50
2023-03-24T16:40:20.950Z,10.63
2023-03-24T16:42:53.284Z,9.43
2023-03-24T16:45:25.598Z,13.30
2023-03-24T16:47:58.064Z,11.65
2023-03-24T16:50:35.865Z,5.90
2023-03-24T16:53:08.692Z,4.38
2023-03-24T16:55:41.669Z,6.53
2023-03-24T16:58:16.459Z,7.50
2023-03-24T17:00:49.205Z,4.53
2023-03-24T17:03:23.785Z,3.65
2023-03-24T17:05:57.358Z,7.13
2023-03-24T17:08:29.970Z,13.88
2023-03-24T17:11:02.441Z,28.25
2023-03-24T17:13:34.952Z,19.10
2023-03-24T17:16:09.716Z,10.13
2023-03-24T17:18:42.082Z,10.50
2023-03-24T17:21:19.252Z,10.10
2023-03-24T17:23:54.133Z,12.15
2023-03-24T17:26:26.555Z,22.02
2023-03-24T17:28:58.955Z,17.40
2023-03-24T17:31:31.334Z,18.17
2023-03-24T17:34:20.684Z,18.77
2023-03-24T17:36:54.958Z,19.95
2023-03-24T17:39:27.330Z,16.80
2023-03-24T17:42:00.975Z,13.02
2023-03-24T17:44:33.490Z,8.60
2023-03-24T17:47:06.440Z,5.18
2023-03-24T17:49:38.863Z,4.80
2023-03-24T17:52:11.962Z,12.13
2023-03-24T17:54:45.909Z,16.23
2023-03-24T17:57:18.510Z,12.98
2023-03-24T17:59:52.887Z,13.95
2023-03-24T18:02:25.968Z,19.80
2023-03-24T18:04:58.487Z,18.17
2023-03-24T18:07:32.007Z,23.40
2023-03-24T18:10:06.021Z,18.77
2023-03-24T18:12:38.395Z,22.58
2023-03-24T18:15:11.171Z,21.50
2023-03-24T18:17:44.049Z,30.98
2023-03-24T18:20:16.868Z,24.77
2023-03-24T18:22:51.491Z,20.90
2023-03-24T18:25:23.793Z,19.48
2023-03-24T18:27:56.367Z,24.17
2023-03-24T18:30:30.117Z,23.35
2023-03-24T18:33:03.018Z,21.67
2023-03-24T18:35:35.437Z,17.92
2023-03-24T18:38:08.527Z,16.40
2023-03-24T18:40:40.899Z,13.45
2023-03-24T18:43:13.348Z,14.23
2023-03-24T18:45:45.766Z,14.15
2023-03-24T18:48:18.283Z,13.88
2023-03-24T18:50:51.254Z,15.50
2023-03-24T18:53:24.535Z,14.75
2023-03-24T18:55:56.992Z,12.38
2023-03-24T18:58:29.874Z,14.52
2023-03-24T19:01:06.082Z,13.10
2023-03-24T19:03:40.189Z,15.80
2023-03-24T19:06:14.139Z,18.15
2023-03-24T19:08:50.962Z,14.50
2023-03-24T19:11:23.571Z,16.90
2023-03-24T19:13:56.611Z,18.27
2023-03-24T19:16:29.040Z,18.90
2023-03-24T19:19:02.043Z,14.55
2023-03-24T19:21:34.553Z,11.57
2023-03-24T19:24:08.227Z,12.35
2023-03-24T19:26:40.547Z,16.10
2023-03-24T19:29:12.904Z,15.90
2023-03-24T19:31:45.462Z,16.38
2023-03-24T19:34:17.853Z,14.05
2023-03-24T19:36:51.265Z,13.88
2023-03-24T19:39:25.476Z,14.15
2023-03-24T19:41:59.113Z,14.95
2023-03-24T19:44:31.529Z,11.13
2023-03-24T19:47:04.287Z,12.02
2023-03-24T19:49:36.914Z,22.23
2023-03-24T19:52:09.307Z,30.05
2023-03-24T19:54:42.565Z,19.73
2023-03-24T19:57:15.330Z,25.77
2023-03-24T19:59:47.707Z,23.60
2023-03-24T20:02:20.618Z,20.70
2023-03-24T20:04:54.677Z,19.30
2023-03-24T20:07:26.958Z,20.02
2023-03-24T20:10:00.218Z,20.48
2023-03-24T20:12:33.067Z,20.58
2023-03-24T20:15:06.141Z,20.90
2023-03-24T20:17:39.896Z,21.00
2023-03-24T20:20:13.427Z,27.73
2023-03-24T20:22:47.908Z,22.90
2023-03-24T20:25:21.684Z,18.13
2023-03-24T20:27:53.973Z,20.02
2023-03-24T20:30:27.464Z,24.95
2023-03-24T20:33:01.025Z,23.30
2023-03-24T20:35:35.184Z,23.50
2023-03-24T20:38:08.806Z,24.48
2023-03-24T20:40:41.774Z,20.70
2023-03-24T20:43:14.106Z,18.40
2023-03-24T20:45:46.587Z,17.95
2023-03-24T20:48:18.894Z,16.27
2023-03-24T20:50:52.036Z,13.60
2023-03-24T20:53:25.359Z,16.08
2023-03-24T20:56:00.139Z,17.20
2023-03-24T20:58:33.667Z,17.92
2023-03-24T21:01:09.214Z,18.38
2023-03-24T21:03:42.134Z,17.50
2023-03-24T21:06:15.354Z,18.33
2023-03-24T21:08:47.655Z,20.60
2023-03-24T21:11:23.599Z,20.20
2023-03-24T21:13:56.028Z,18.92
2023-03-24T21:16:28.816Z,20.88
2023-03-24T21:19:01.343Z,24.48
2023-03-24T21:21:33.731Z,24.20
2023-03-24T21:24:06.599Z,23.92
2023-03-24T21:26:39.679Z,25.77
2023-03-24T21:29:12.364Z,25.05
2023-03-24T21:31:44.868Z,22.80
2023-03-24T21:34:17.248Z,24.73
2023-03-24T21:36:52.929Z,23.00
2023-03-24T21:39:25.669Z,24.63
2023-03-24T21:42:02.218Z,23.85
2023-03-24T21:44:34.578Z,19.77
2023-03-24T21:47:07.185Z,17.40
2023-03-24T21:49:39.460Z,20.33
2023-03-24T21:52:11.805Z,17.40
2023-03-24T21:54:44.240Z,16.02
2023-03-24T21:57:17.226Z,17.65
2023-03-24T21:59:49.680Z,19.70
2023-03-24T22:02:24.701Z,17.85
2023-03-24T22:05:01.201Z,15.60
2023-03-24T22:07:36.949Z,14.48
2023-03-24T22:10:12.723Z,17.48
2023-03-24T22:12:45.895Z,16.23
2023-03-24T22:15:18.766Z,12.70
2023-03-24T22:17:51.179Z,12.10
2023-03-24T22:20:23.923Z,14.10
2023-03-24T22:22:56.187Z,9.23
2023-03-24T22:25:28.861Z,10.50
2023-03-24T22:28:01.888Z,8.00
2023-03-24T22:30:34.198Z,11.43
2023-03-24T22:33:06.893Z,7.88
2023-03-24T22:35:39.401Z,6.72
2023-03-24T22:38:14.319Z,5.60
2023-03-24T22:40:46.624Z,4.80
2023-03-24T22:43:19.701Z,7.90
2023-03-24T22:45:52.396Z,3.75
2023-03-24T22:48:25.345Z,4.13
2023-03-24T22:50:57.720Z,3.53
2023-03-24T22:53:30.280Z,3.88
2023-03-24T22:56:02.949Z,4.25
2023-03-24T22:58:36.029Z,4.20
2023-03-24T23:01:09.242Z,3.70
2023-03-24T23:03:41.612Z,15.98
2023-03-24T23:06:15.227Z,5.10
2023-03-24T23:08:48.788Z,11.55
2023-03-24T23:11:27.986Z,13.02
2023-03-24T23:14:04.120Z,12.77
2023-03-24T23:16:37.931Z,5.95
2023-03-24T23:19:11.503Z,13.48
2023-03-24T23:21:44.223Z,8.98
2023-03-24T23:24:16.704Z,2.72
2023-03-24T23:26:49.047Z,6.75
2023-03-24T23:29:21.986Z,13.63
2023-03-24T23:31:54.350Z,16.95
2023-03-24T23:34:26.742Z,5.78
2023-03-24T23:37:02.483Z,5.38
2023-03-24T23:39:36.056Z,3.65
2023-03-24T23:42:08.362Z,3.00
2023-03-24T23:44:41.303Z,3.75
2023-03-24T23:47:13.568Z,3.78
2023-03-24T23:49:45.826Z,2.95
2023-03-24T23:52:18.101Z,5.53
2023-03-24T23:54:50.837Z,4.28
2023-03-24T23:57:23.153Z,4.13
2023-03-24T23:59:56.341Z,2.92
